createdAt,value
2023-06-24T00:01:57.699Z,78.07
2023-06-24T00:04:25.793Z,78.36
2023-06-24T00:06:54.030Z,78.47
2023-06-24T00:09:22.132Z,78.27
2023-06-24T00:11:50.202Z,78.77
2023-06-24T00:14:18.570Z,78.56
2023-06-24T00:16:52.329Z,78.66
2023-06-24T00:19:22.135Z,79.05
2023-06-24T00:21:54.217Z,78.78
2023-06-24T00:24:27.204Z,78.51
2023-06-24T00:26:56.635Z,78.57
2023-06-24T00:29:24.749Z,78.55
2023-06-24T00:31:53.130Z,78.52
2023-06-24T00:34:21.685Z,78.65
2023-06-24T00:36:49.913Z,78.76
2023-06-24T00:39:18.129Z,79.13
2023-06-24T00:41:46.254Z,78.74
2023-06-24T00:44:15.070Z,78.91
2023-06-24T00:46:43.297Z,78.76
2023-06-24T00:49:17.360Z,78.70
2023-06-24T00:51:52.377Z,78.63
2023-06-24T00:54:20.409Z,78.45
2023-06-24T00:56:49.131Z,78.51
2023-06-24T00:59:18.763Z,78.35
2023-06-24T01:01:47.797Z,78.31
2023-06-24T01:04:17.813Z,78.26
2023-06-24T01:06:46.045Z,78.20
2023-06-24T01:09:14.339Z,78.02
2023-06-24T01:11:42.454Z,78.14
2023-06-24T01:14:10.683Z,77.97
2023-06-24T01:16:43.312Z,78.35
2023-06-24T01:19:14.653Z,78.49
2023-06-24T01:22:22.199Z,78.60
2023-06-24T01:25:05.212Z,78.51
2023-06-24T01:28:21.171Z,78.85
2023-06-24T01:30:51.893Z,78.70
2023-06-24T01:33:45.210Z,78.61
2023-06-24T01:36:17.774Z,78.47
2023-06-24T01:38:53.380Z,78.57
2023-06-24T01:41:25.605Z,78.28
2023-06-24T01:43:55.042Z,78.13
2023-06-24T01:46:26.321Z,77.86
2023-06-24T01:48:59.410Z,78.05
2023-06-24T01:51:29.326Z,78.66
2023-06-24T01:54:06.216Z,78.49
2023-06-24T01:56:37.116Z,78.43
2023-06-24T01:59:07.179Z,78.53
2023-06-24T02:01:37.201Z,78.32
2023-06-24T02:04:09.512Z,78.44
2023-06-24T02:06:40.766Z,78.32
2023-06-24T02:09:10.262Z,78.04
2023-06-24T02:11:39.592Z,78.13
2023-06-24T02:14:09.912Z,78.04
2023-06-24T02:16:43.740Z,77.99
2023-06-24T02:19:12.962Z,77.91
2023-06-24T02:21:42.928Z,77.51
2023-06-24T02:24:12.563Z,77.23
2023-06-24T02:26:42.024Z,77.03
2023-06-24T02:29:13.819Z,76.94
2023-06-24T02:31:42.009Z,77.03
2023-06-24T02:34:10.234Z,76.99
2023-06-24T02:36:39.065Z,76.77
2023-06-24T02:39:07.272Z,76.51
2023-06-24T02:41:35.290Z,76.61
2023-06-24T02:44:03.520Z,76.89
2023-06-24T02:46:35.550Z,76.88
2023-06-24T02:49:04.871Z,76.76
2023-06-24T02:51:33.894Z,76.75
2023-06-24T02:54:04.312Z,76.68
2023-06-24T02:57:00.357Z,76.53
2023-06-24T02:59:40.504Z,76.38
2023-06-24T03:02:10.630Z,76.28
2023-06-24T03:04:40.783Z,76.31
2023-06-24T03:07:12.924Z,76.26
2023-06-24T03:09:42.320Z,76.16
2023-06-24T03:12:10.639Z,76.08
2023-06-24T03:14:42.674Z,75.99
2023-06-24T03:17:11.240Z,75.79
2023-06-24T03:19:40.450Z,75.87
2023-06-24T03:22:08.529Z,76.02
2023-06-24T03:24:37.568Z,76.14
2023-06-24T03:27:05.882Z,75.91
2023-06-24T03:29:39.526Z,75.85
2023-06-24T03:32:13.859Z,75.55
2023-06-24T03:34:42.645Z,75.27
2023-06-24T03:37:12.007Z,74.98
2023-06-24T03:39:42.038Z,74.55
2023-06-24T03:42:10.662Z,74.20
2023-06-24T03:44:39.279Z,74.18
2023-06-24T03:47:07.703Z,74.23
2023-06-24T03:49:36.019Z,74.03
2023-06-24T03:52:05.240Z,73.97
2023-06-24T03:54:33.465Z,73.84
2023-06-24T03:57:01.482Z,73.61
2023-06-24T03:59:29.902Z,73.59
2023-06-24T04:01:58.929Z,73.32
2023-06-24T04:04:27.445Z,73.32
2023-06-24T04:06:55.583Z,73.17
2023-06-24T04:09:24.985Z,72.90
2023-06-24T04:11:55.120Z,72.34
2023-06-24T04:14:23.357Z,71.92
2023-06-24T04:16:51.558Z,70.71
2023-06-24T04:19:19.978Z,70.26
2023-06-24T04:21:48.000Z,70.00
2023-06-24T04:24:16.731Z,69.49
2023-06-24T04:26:44.957Z,68.73
2023-06-24T04:29:13.165Z,67.25
2023-06-24T04:31:41.328Z,66.93
2023-06-24T04:34:09.614Z,66.87
2023-06-24T04:36:37.926Z,66.25
2023-06-24T04:39:05.975Z,66.32
2023-06-24T04:41:34.062Z,66.49
2023-06-24T04:44:02.280Z,65.87
2023-06-24T04:46:30.716Z,66.04
2023-06-24T04:48:58.928Z,66.79
2023-06-24T04:51:27.442Z,67.10
2023-06-24T04:53:56.768Z,68.14
2023-06-24T04:56:26.010Z,68.16
2023-06-24T04:58:54.117Z,67.94
2023-06-24T05:01:23.313Z,67.79
2023-06-24T05:03:51.478Z,68.21
2023-06-24T05:06:19.679Z,68.68
2023-06-24T05:08:48.001Z,68.56
2023-06-24T05:11:16.424Z,68.42
2023-06-24T05:13:44.542Z,68.36
2023-06-24T05:16:12.560Z,68.27
2023-06-24T05:18:40.684Z,68.38
2023-06-24T05:21:08.807Z,68.49
2023-06-24T05:23:36.929Z,68.27
2023-06-24T05:26:04.946Z,68.27
2023-06-24T05:28:33.063Z,68.07
2023-06-24T05:31:01.080Z,67.67
2023-06-24T05:33:29.204Z,67.51
2023-06-24T05:35:57.321Z,67.65
2023-06-24T05:38:25.441Z,67.40
2023-06-24T05:40:53.569Z,67.54
2023-06-24T05:43:21.680Z,67.73
2023-06-24T05:45:49.739Z,67.63
2023-06-24T05:48:17.922Z,67.51
2023-06-24T05:50:46.144Z,68.18
2023-06-24T05:53:14.360Z,68.85
2023-06-24T05:55:42.480Z,68.74
2023-06-24T05:58:10.496Z,68.90
2023-06-24T06:00:38.619Z,69.26
2023-06-24T06:03:06.918Z,68.51
2023-06-24T06:05:35.447Z,68.02
2023-06-24T06:08:04.188Z,67.74
2023-06-24T06:10:32.249Z,68.65
2023-06-24T06:13:00.345Z,68.31
2023-06-24T06:15:28.543Z,67.87
2023-06-24T06:17:56.796Z,67.18
2023-06-24T06:20:25.086Z,67.33
2023-06-24T06:22:53.133Z,67.09
2023-06-24T06:25:21.120Z,65.72
2023-06-24T06:27:49.253Z,66.36
2023-06-24T06:30:17.665Z,66.65
2023-06-24T06:32:45.821Z,66.02
2023-06-24T06:35:13.842Z,65.66
2023-06-24T06:37:41.935Z,65.09
2023-06-24T06:40:10.761Z,65.91
2023-06-24T06:42:39.071Z,66.22
2023-06-24T06:45:07.796Z,65.60
2023-06-24T06:47:35.905Z,65.69
2023-06-24T06:50:04.335Z,64.48
2023-06-24T06:52:32.562Z,64.21
2023-06-24T06:55:00.980Z,64.45
2023-06-24T06:57:29.598Z,64.29
2023-06-24T06:59:57.931Z,64.07
2023-06-24T07:02:26.182Z,63.71
2023-06-24T07:04:54.468Z,63.19
2023-06-24T07:07:22.722Z,63.01
2023-06-24T07:09:51.210Z,62.65
2023-06-24T07:12:19.423Z,63.19
2023-06-24T07:14:47.635Z,63.00
2023-06-24T07:17:15.865Z,62.81
2023-06-24T07:19:43.977Z,62.16
2023-06-24T07:22:12.226Z,62.04
2023-06-24T07:24:40.464Z,62.73
2023-06-24T07:27:08.842Z,63.01
2023-06-24T07:29:37.446Z,62.83
2023-06-24T07:32:06.181Z,62.87
2023-06-24T07:34:34.672Z,61.66
2023-06-24T07:37:11.507Z,60.70
2023-06-24T07:39:43.091Z,59.80
2023-06-24T07:42:11.208Z,59.18
2023-06-24T07:44:40.833Z,60.42
2023-06-24T07:47:09.033Z,60.89
2023-06-24T07:49:37.578Z,60.35
2023-06-24T07:52:06.096Z,60.76
2023-06-24T07:54:35.430Z,60.74
2023-06-24T07:57:04.509Z,60.56
2023-06-24T07:59:32.661Z,61.09
2023-06-24T08:02:00.783Z,61.28
2023-06-24T08:04:29.002Z,61.23
2023-06-24T08:06:57.648Z,60.99
2023-06-24T08:09:26.050Z,61.25
2023-06-24T08:11:54.171Z,61.54
2023-06-24T08:14:22.388Z,61.40
2023-06-24T08:16:50.517Z,60.96
2023-06-24T08:19:18.639Z,60.52
2023-06-24T08:21:46.750Z,60.87
2023-06-24T08:24:14.899Z,60.71
2023-06-24T08:26:43.191Z,60.58
2023-06-24T08:29:11.414Z,60.96
2023-06-24T08:31:39.430Z,61.03
2023-06-24T08:34:08.262Z,61.51
2023-06-24T08:36:38.555Z,61.34
2023-06-24T08:39:07.115Z,61.67
2023-06-24T08:41:35.450Z,61.51
2023-06-24T08:44:03.946Z,60.91
2023-06-24T08:46:34.278Z,59.85
2023-06-24T08:49:28.983Z,58.98
2023-06-24T08:52:00.419Z,58.87
2023-06-24T08:54:31.167Z,59.20
2023-06-24T08:57:01.477Z,59.07
2023-06-24T08:59:29.696Z,58.99
2023-06-24T09:01:57.963Z,58.19
2023-06-24T09:04:26.150Z,58.17
2023-06-24T09:06:55.255Z,57.80
2023-06-24T09:09:24.925Z,56.90
2023-06-24T09:11:55.718Z,57.15
2023-06-24T09:14:26.147Z,56.63
2023-06-24T09:17:07.554Z,56.71
2023-06-24T09:19:37.682Z,56.61
2023-06-24T09:22:08.884Z,54.38
2023-06-24T09:24:38.416Z,55.16
2023-06-24T09:27:06.519Z,54.82
2023-06-24T09:29:36.670Z,54.29
2023-06-24T09:32:08.696Z,54.05
2023-06-24T09:34:37.301Z,53.30
2023-06-24T09:37:05.818Z,52.55
2023-06-24T09:39:43.057Z,52.20
2023-06-24T09:42:13.090Z,51.51
2023-06-24T09:44:43.321Z,50.70
2023-06-24T09:47:11.736Z,50.39
2023-06-24T09:49:39.783Z,50.23
2023-06-24T09:52:08.594Z,50.01
2023-06-24T09:54:38.198Z,50.64
2023-06-24T09:57:09.067Z,50.69
2023-06-24T09:59:38.279Z,49.31
2023-06-24T10:02:12.502Z,48.98
2023-06-24T10:04:41.033Z,48.02
2023-06-24T10:07:09.586Z,47.18
2023-06-24T10:09:39.880Z,47.08
2023-06-24T10:12:08.707Z,47.40
2023-06-24T10:14:37.433Z,47.21
2023-06-24T10:17:06.238Z,46.95
2023-06-24T10:19:42.044Z,46.23
2023-06-24T10:22:11.983Z,45.50
2023-06-24T10:24:43.584Z,44.69
2023-06-24T10:27:17.756Z,44.34
2023-06-24T10:29:48.042Z,44.80
2023-06-24T10:32:16.961Z,44.59
2023-06-24T10:34:54.801Z,45.31
2023-06-24T10:37:28.166Z,45.33
2023-06-24T10:40:02.212Z,44.05
2023-06-24T10:42:30.597Z,42.47
2023-06-24T10:45:01.551Z,42.50
2023-06-24T10:47:31.436Z,42.67
2023-06-24T10:49:59.666Z,42.65
2023-06-24T10:52:28.226Z,43.61
2023-06-24T10:54:59.055Z,43.80
2023-06-24T10:57:28.743Z,43.17
2023-06-24T10:59:58.777Z,43.68
2023-06-24T11:02:29.224Z,43.35
2023-06-24T11:04:59.833Z,43.80
2023-06-24T11:07:35.835Z,43.35
2023-06-24T11:10:12.610Z,42.93
2023-06-24T11:12:42.763Z,43.44
2023-06-24T11:15:13.236Z,42.82
2023-06-24T11:17:42.963Z,42.07
2023-06-24T11:20:15.866Z,43.00
2023-06-24T11:22:45.382Z,43.04
2023-06-24T11:25:20.926Z,42.69
2023-06-24T11:27:52.233Z,42.64
2023-06-24T11:30:20.871Z,43.21
2023-06-24T11:32:49.698Z,43.16
2023-06-24T11:35:18.309Z,43.56
2023-06-24T11:37:50.839Z,45.60
2023-06-24T11:40:21.363Z,46.33
2023-06-24T11:42:52.168Z,46.27
2023-06-24T11:45:23.031Z,46.67
2023-06-24T11:47:51.816Z,46.37
2023-06-24T11:50:27.401Z,46.51
2023-06-24T11:52:56.020Z,46.42
2023-06-24T11:55:26.325Z,46.70
2023-06-24T11:58:07.217Z,46.43
2023-06-24T12:00:40.759Z,47.58
2023-06-24T12:03:12.050Z,47.68
2023-06-24T12:05:47.000Z,48.79
2023-06-24T12:08:17.018Z,49.59
2023-06-24T12:10:46.577Z,49.65
2023-06-24T12:13:15.007Z,49.73
2023-06-24T12:15:43.326Z,49.88
2023-06-24T12:18:13.357Z,50.17
2023-06-24T12:20:42.063Z,50.06
2023-06-24T12:23:10.597Z,51.39
2023-06-24T12:25:38.918Z,50.59
2023-06-24T12:28:07.042Z,51.58
2023-06-24T12:30:35.697Z,51.77
2023-06-24T12:33:05.137Z,52.62
2023-06-24T12:35:33.520Z,52.54
2023-06-24T12:38:01.639Z,52.52
2023-06-24T12:40:29.849Z,52.64
2023-06-24T12:42:59.085Z,52.88
2023-06-24T12:45:27.593Z,53.26
2023-06-24T12:47:55.944Z,52.57
2023-06-24T12:50:24.236Z,53.09
2023-06-24T12:52:52.756Z,53.35
2023-06-24T12:55:20.875Z,51.72
2023-06-24T12:57:49.195Z,51.98
2023-06-24T13:00:20.987Z,51.95
2023-06-24T13:02:50.418Z,52.80
2023-06-24T13:05:19.501Z,53.36
2023-06-24T13:07:47.704Z,53.03
2023-06-24T13:10:16.017Z,53.42
2023-06-24T13:12:44.242Z,52.74
2023-06-24T13:15:12.468Z,51.68
2023-06-24T13:17:40.718Z,52.15
2023-06-24T13:20:09.571Z,52.65
2023-06-24T13:22:37.821Z,52.19
2023-06-24T13:25:06.900Z,52.31
2023-06-24T13:27:36.180Z,51.82
2023-06-24T13:30:06.199Z,52.81
2023-06-24T13:32:34.433Z,52.82
2023-06-24T13:35:02.848Z,52.54
2023-06-24T13:37:31.561Z,52.71
2023-06-24T13:40:00.087Z,52.30
2023-06-24T13:42:28.402Z,52.33
2023-06-24T13:44:56.539Z,52.25
2023-06-24T13:47:24.874Z,52.34
2023-06-24T13:49:52.963Z,52.49
2023-06-24T13:52:22.304Z,52.16
2023-06-24T13:54:51.208Z,52.27
2023-06-24T13:57:19.835Z,51.95
2023-06-24T13:59:48.271Z,52.08
2023-06-24T14:02:16.513Z,51.53
2023-06-24T14:04:44.995Z,51.12
2023-06-24T14:07:13.378Z,49.55
2023-06-24T14:09:41.661Z,49.79
2023-06-24T14:12:10.364Z,50.03
2023-06-24T14:14:39.987Z,49.91
2023-06-24T14:17:13.131Z,49.98
2023-06-24T14:19:41.843Z,50.71
2023-06-24T14:22:10.374Z,51.22
2023-06-24T14:24:39.290Z,50.51
2023-06-24T14:27:08.212Z,49.52
2023-06-24T14:29:36.674Z,48.96
2023-06-24T14:32:05.303Z,48.51
2023-06-24T14:34:33.679Z,48.82
2023-06-24T14:37:01.797Z,48.96
2023-06-24T14:39:31.043Z,49.47
2023-06-24T14:41:59.336Z,49.42
2023-06-24T14:44:27.478Z,49.78
2023-06-24T14:46:55.577Z,50.37
2023-06-24T14:49:23.703Z,49.79
2023-06-24T14:51:53.425Z,49.59
2023-06-24T14:54:21.754Z,49.00
2023-06-24T14:56:50.072Z,49.34
2023-06-24T14:59:18.187Z,49.26
2023-06-24T15:01:46.373Z,49.32
2023-06-24T15:04:14.530Z,49.43
2023-06-24T15:06:42.997Z,48.96
2023-06-24T15:09:11.274Z,49.47
2023-06-24T15:11:39.486Z,49.87
2023-06-24T15:14:07.708Z,50.65
2023-06-24T15:16:35.831Z,50.98
2023-06-24T15:19:03.948Z,51.52
2023-06-24T15:21:37.096Z,51.48
2023-06-24T15:24:06.222Z,52.06
2023-06-24T15:26:34.532Z,52.10
2023-06-24T15:29:02.656Z,52.06
2023-06-24T15:31:31.029Z,51.83
2023-06-24T15:33:59.494Z,52.68
2023-06-24T15:36:29.120Z,52.82
2023-06-24T15:38:58.377Z,53.64
2023-06-24T15:41:26.694Z,54.02
2023-06-24T15:43:54.897Z,53.92
2023-06-24T15:46:24.384Z,53.39
2023-06-24T15:48:52.831Z,53.02
2023-06-24T15:51:21.038Z,53.61
2023-06-24T15:53:49.375Z,54.50
2023-06-24T15:56:17.706Z,54.93
2023-06-24T15:58:45.908Z,55.52
2023-06-24T16:01:14.677Z,56.22
2023-06-24T16:03:43.097Z,56.80
2023-06-24T16:06:11.376Z,57.07
2023-06-24T16:08:39.598Z,57.38
2023-06-24T16:11:08.527Z,57.74
2023-06-24T16:13:36.746Z,57.97
2023-06-24T16:16:05.268Z,58.31
2023-06-24T16:18:33.381Z,58.48
2023-06-24T16:21:03.513Z,58.75
2023-06-24T16:23:31.629Z,58.64
2023-06-24T16:25:59.872Z,59.02
2023-06-24T16:28:28.170Z,58.93
2023-06-24T16:30:56.362Z,59.24
2023-06-24T16:33:24.608Z,60.18
2023-06-24T16:35:52.734Z,60.43
2023-06-24T16:38:20.865Z,60.43
2023-06-24T16:40:49.175Z,60.78
2023-06-24T16:43:17.392Z,60.99
2023-06-24T16:45:47.786Z,60.85
2023-06-24T16:48:16.234Z,61.08
2023-06-24T16:50:44.574Z,60.97
2023-06-24T16:53:12.784Z,60.78
2023-06-24T16:55:41.102Z,60.74
2023-06-24T16:58:09.330Z,60.73
2023-06-24T17:00:37.897Z,60.81
2023-06-24T17:03:06.582Z,61.28
2023-06-24T17:05:39.533Z,61.37
2023-06-24T17:08:08.828Z,61.79
2023-06-24T17:10:37.305Z,62.18
2023-06-24T17:13:05.771Z,62.70
2023-06-24T17:15:33.899Z,63.11
2023-06-24T17:18:02.448Z,63.70
2023-06-24T17:20:30.835Z,64.06
2023-06-24T17:22:59.159Z,64.21
2023-06-24T17:25:27.400Z,64.39
2023-06-24T17:27:55.595Z,64.63
2023-06-24T17:30:23.674Z,64.96
2023-06-24T17:32:51.977Z,65.72
2023-06-24T17:35:23.224Z,66.02
2023-06-24T17:37:51.597Z,66.80
2023-06-24T17:40:19.802Z,67.23
2023-06-24T17:42:49.129Z,67.52
2023-06-24T17:45:18.969Z,67.67
2023-06-24T17:47:47.098Z,67.90
2023-06-24T17:50:15.193Z,68.29
2023-06-24T17:52:43.420Z,68.89
2023-06-24T17:55:11.648Z,69.21
2023-06-24T17:57:39.653Z,69.62
2023-06-24T18:00:08.475Z,69.98
2023-06-24T18:02:36.634Z,70.33
2023-06-24T18:05:05.443Z,70.61
2023-06-24T18:07:33.717Z,70.74
2023-06-24T18:10:01.968Z,70.98
2023-06-24T18:12:30.283Z,71.09
2023-06-24T18:14:58.405Z,71.14
2023-06-24T18:17:26.741Z,71.55
2023-06-24T18:19:55.152Z,71.71
2023-06-24T18:22:23.364Z,71.52
2023-06-24T18:24:54.190Z,71.49
2023-06-24T18:27:24.775Z,71.75
2023-06-24T18:29:54.054Z,71.80
2023-06-24T18:32:25.077Z,72.07
2023-06-24T18:34:57.445Z,72.01
2023-06-24T18:37:25.627Z,72.31
2023-06-24T18:39:53.654Z,72.19
2023-06-24T18:42:23.793Z,71.97
2023-06-24T18:44:51.903Z,72.08
2023-06-24T18:47:19.953Z,72.32
2023-06-24T18:49:48.143Z,72.35
2023-06-24T18:52:16.161Z,71.97
2023-06-24T18:54:47.395Z,72.24
2023-06-24T18:57:15.815Z,72.18
2023-06-24T18:59:44.851Z,71.88
2023-06-24T19:02:13.191Z,71.69
2023-06-24T19:04:43.288Z,71.71
2023-06-24T19:07:11.618Z,71.55
2023-06-24T19:09:40.029Z,71.14
2023-06-24T19:12:08.646Z,70.93
2023-06-24T19:14:37.164Z,70.81
2023-06-24T19:17:05.806Z,70.42
2023-06-24T19:19:34.218Z,70.17
2023-06-24T19:22:04.838Z,70.05
2023-06-24T19:24:37.372Z,69.46
2023-06-24T19:27:06.314Z,68.33
2023-06-24T19:29:34.418Z,67.80
2023-06-24T19:32:02.596Z,66.70
2023-06-24T19:34:30.979Z,65.20
2023-06-24T19:36:59.075Z,64.19
2023-06-24T19:39:27.026Z,63.41
2023-06-24T19:41:55.223Z,63.63
2023-06-24T19:44:23.342Z,62.91
2023-06-24T19:46:51.648Z,62.91
2023-06-24T19:49:19.877Z,62.65
2023-06-24T19:51:47.912Z,62.69
2023-06-24T19:54:16.016Z,62.78
2023-06-24T19:56:44.152Z,62.76
2023-06-24T19:59:12.159Z,62.85
2023-06-24T20:01:40.307Z,63.00
2023-06-24T20:04:08.596Z,63.06
2023-06-24T20:06:36.617Z,62.81
2023-06-24T20:09:04.841Z,62.57
2023-06-24T20:11:32.954Z,62.62
2023-06-24T20:14:01.076Z,62.74
2023-06-24T20:16:29.115Z,62.86
2023-06-24T20:18:57.231Z,63.17
2023-06-24T20:21:25.337Z,63.08
2023-06-24T20:23:54.299Z,62.48
2023-06-24T20:26:22.485Z,61.87
2023-06-24T20:28:50.500Z,61.72
2023-06-24T20:31:18.748Z,61.80
2023-06-24T20:33:47.051Z,61.89
2023-06-24T20:36:15.016Z,61.86
2023-06-24T20:38:43.199Z,61.64
2023-06-24T20:41:21.141Z,62.09
2023-06-24T20:43:49.573Z,62.28
2023-06-24T20:46:18.034Z,62.18
2023-06-24T20:48:46.701Z,61.54
2023-06-24T20:51:15.220Z,60.95
2023-06-24T20:53:43.507Z,60.88
2023-06-24T20:56:12.162Z,60.93
2023-06-24T20:58:41.588Z,61.16
2023-06-24T21:01:11.011Z,61.37
2023-06-24T21:03:40.969Z,61.65
2023-06-24T21:06:09.458Z,62.14
2023-06-24T21:08:37.582Z,62.33
2023-06-24T21:11:05.697Z,62.37
2023-06-24T21:13:33.821Z,62.34
2023-06-24T21:16:02.140Z,62.29
2023-06-24T21:18:30.360Z,62.23
2023-06-24T21:20:58.381Z,62.38
2023-06-24T21:23:26.503Z,62.49
2023-06-24T21:25:54.824Z,62.72
2023-06-24T21:28:22.944Z,63.00
2023-06-24T21:30:51.867Z,62.94
2023-06-24T21:33:20.409Z,63.04
2023-06-24T21:35:59.887Z,63.51
2023-06-24T21:38:29.525Z,63.97
2023-06-24T21:40:57.674Z,64.38
2023-06-24T21:43:25.713Z,64.46
2023-06-24T21:45:53.932Z,64.58
2023-06-24T21:48:22.059Z,64.81
2023-06-24T21:50:50.075Z,65.04
2023-06-24T21:53:18.126Z,65.12
2023-06-24T21:55:46.423Z,65.10
2023-06-24T21:58:15.171Z,65.85
2023-06-24T22:00:44.291Z,66.05
2023-06-24T22:03:12.496Z,66.19
2023-06-24T22:05:40.851Z,66.12
2023-06-24T22:08:08.923Z,66.45
2023-06-24T22:10:37.261Z,66.89
2023-06-24T22:13:05.863Z,67.01
2023-06-24T22:15:34.074Z,67.11
2023-06-24T22:18:03.457Z,67.35
2023-06-24T22:20:32.431Z,68.03
2023-06-24T22:23:00.556Z,68.12
2023-06-24T22:25:28.576Z,68.56
2023-06-24T22:27:59.703Z,69.31
2023-06-24T22:30:28.022Z,68.80
2023-06-24T22:32:56.169Z,67.51
2023-06-24T22:35:24.520Z,67.54
2023-06-24T22:37:53.383Z,67.74
2023-06-24T22:40:21.508Z,68.26
2023-06-24T22:42:49.737Z,68.90
2023-06-24T22:45:17.846Z,69.33
2023-06-24T22:47:45.991Z,69.14
2023-06-24T22:50:14.207Z,69.07
2023-06-24T22:52:42.611Z,69.06
2023-06-24T22:55:10.934Z,68.70
2023-06-24T22:57:39.150Z,68.78
2023-06-24T23:00:07.573Z,68.72
2023-06-24T23:02:36.264Z,69.43
2023-06-24T23:05:05.517Z,69.76
2023-06-24T23:07:34.333Z,69.96
2023-06-24T23:10:03.457Z,69.62
2023-06-24T23:12:32.181Z,69.19
2023-06-24T23:15:01.012Z,69.23
2023-06-24T23:17:29.439Z,69.35
2023-06-24T23:19:58.653Z,69.78
2023-06-24T23:22:27.276Z,69.49
2023-06-24T23:24:55.929Z,69.50
2023-06-24T23:27:31.759Z,69.61
2023-06-24T23:30:02.169Z,69.87
2023-06-24T23:32:33.865Z,70.03
2023-06-24T23:35:02.626Z,70.19
2023-06-24T23:37:31.553Z,70.18
2023-06-24T23:40:00.076Z,70.41
2023-06-24T23:42:30.477Z,70.69
2023-06-24T23:44:59.317Z,70.63
2023-06-24T23:47:27.536Z,70.71
2023-06-24T23:49:55.860Z,70.73
2023-06-24T23:52:24.267Z,70.70
2023-06-24T23:54:52.397Z,70.75
2023-06-24T23:57:21.050Z,71.12
2023-06-24T23:59:49.245Z,71.42
